sensor_id;sensor_type;location;lat;lon;timestamp;pressure;altitude;pressure_sealevel;temperature;humidity
62237;BME280;69163;48.778;2.308;2023-07-24T00:01:58;99960.79;;;22.51;37.81
62237;BME280;69163;48.778;2.308;2023-07-24T00:04:23;99937.20;;;22.29;37.75
62237;BME280;69163;48.778;2.308;2023-07-24T00:06:48;99930.93;;;22.52;37.75
62237;BME280;69163;48.778;2.308;2023-07-24T00:09:14;99924.06;;;22.76;37.74
62237;BME280;69163;48.778;2.308;2023-07-24T00:11:39;99920.41;;;22.80;37.68
62237;BME280;69163;48.778;2.308;2023-07-24T00:14:04;99912.09;;;22.53;37.68
62237;BME280;69163;48.778;2.308;2023-07-24T00:16:30;99910.69;;;22.55;37.71
62237;BME280;69163;48.778;2.308;2023-07-24T00:18:55;99906.59;;;22.73;37.78
62237;BME280;69163;48.778;2.308;2023-07-24T00:21:20;99902.64;;;22.50;37.74
62237;BME280;69163;48.778;2.308;2023-07-24T00:23:46;99895.99;;;22.52;37.68
62237;BME280;69163;48.778;2.308;2023-07-24T00:26:11;99906.81;;;22.53;37.71
62237;BME280;69163;48.778;2.308;2023-07-24T00:28:36;99907.92;;;22.29;37.68
62237;BME280;69163;48.778;2.308;2023-07-24T00:31:01;99907.77;;;22.52;37.81
62237;BME280;69163;48.778;2.308;2023-07-24T00:33:26;99909.87;;;22.73;37.82
62237;BME280;69163;48.778;2.308;2023-07-24T00:35:55;99902.85;;;22.49;37.84
62237;BME280;69163;48.778;2.308;2023-07-24T00:38:16;99891.66;;;22.28;37.84
62237;BME280;69163;48.778;2.308;2023-07-24T00:40:42;99878.20;;;22.51;37.82
62237;BME280;69163;48.778;2.308;2023-07-24T00:43:07;99867.91;;;22.53;37.77
62237;BME280;69163;48.778;2.308;2023-07-24T00:45:33;99865.71;;;22.75;37.78
62237;BME280;69163;48.778;2.308;2023-07-24T00:47:59;99863.24;;;22.81;37.78
62237;BME280;69163;48.778;2.308;2023-07-24T00:50:23;99853.02;;;22.80;37.81
62237;BME280;69163;48.778;2.308;2023-07-24T00:52:48;99843.24;;;22.35;37.75
62237;BME280;69163;48.778;2.308;2023-07-24T00:55:14;99841.35;;;22.36;37.71
62237;BME280;69163;48.778;2.308;2023-07-24T00:57:39;99835.61;;;22.60;37.69
62237;BME280;69163;48.778;2.308;2023-07-24T01:00:05;99828.97;;;22.61;37.73
62237;BME280;69163;48.778;2.308;2023-07-24T01:02:29;99827.66;;;22.37;37.68
62237;BME280;69163;48.778;2.308;2023-07-24T01:04:54;99841.09;;;22.61;37.67
62237;BME280;69163;48.778;2.308;2023-07-24T01:07:20;99854.41;;;22.37;37.71
62237;BME280;69163;48.778;2.308;2023-07-24T01:09:45;99868.53;;;22.55;37.81
62237;BME280;69163;48.778;2.308;2023-07-24T01:12:15;99874.58;;;22.50;37.86
62237;BME280;69163;48.778;2.308;2023-07-24T01:14:41;99871.03;;;22.72;37.86
62237;BME280;69163;48.778;2.308;2023-07-24T01:17:00;99866.85;;;22.76;37.78
62237;BME280;69163;48.778;2.308;2023-07-24T01:19:35;99864.27;;;22.52;37.81
62237;BME280;69163;48.778;2.308;2023-07-24T01:22:14;99861.54;;;22.75;37.81
62237;BME280;69163;48.778;2.308;2023-07-24T01:24:24;99860.30;;;22.71;37.81
62237;BME280;69163;48.778;2.308;2023-07-24T01:26:41;99865.42;;;22.75;37.77
62237;BME280;69163;48.778;2.308;2023-07-24T01:29:06;99871.04;;;22.17;37.93
62237;BME280;69163;48.778;2.308;2023-07-24T01:31:32;99868.85;;;22.48;37.82
62237;BME280;69163;48.778;2.308;2023-07-24T01:33:57;99862.43;;;22.22;37.86
62237;BME280;69163;48.778;2.308;2023-07-24T01:36:22;99857.20;;;22.24;37.79
62237;BME280;69163;48.778;2.308;2023-07-24T01:38:47;99857.68;;;22.25;37.77
62237;BME280;69163;48.778;2.308;2023-07-24T01:41:12;99854.48;;;22.67;37.84
62237;BME280;69163;48.778;2.308;2023-07-24T01:43:38;99846.17;;;22.53;38.06
62237;BME280;69163;48.778;2.308;2023-07-24T01:46:03;99842.30;;;22.70;37.84
62237;BME280;69163;48.778;2.308;2023-07-24T01:48:28;99835.47;;;22.43;37.88
62237;BME280;69163;48.778;2.308;2023-07-24T01:50:54;99844.37;;;22.61;37.93
62237;BME280;69163;48.778;2.308;2023-07-24T01:53:19;99849.52;;;22.70;37.89
62237;BME280;69163;48.778;2.308;2023-07-24T01:55:45;99841.04;;;22.78;38.01
62237;BME280;69163;48.778;2.308;2023-07-24T01:58:09;99827.90;;;22.56;38.10
62237;BME280;69163;48.778;2.308;2023-07-24T02:00:35;99829.02;;;22.43;38.26
62237;BME280;69163;48.778;2.308;2023-07-24T02:03:00;99827.50;;;22.68;38.46
62237;BME280;69163;48.778;2.308;2023-07-24T02:05:26;99829.33;;;22.46;38.62
62237;BME280;69163;48.778;2.308;2023-07-24T02:07:51;99830.36;;;22.46;38.75
62237;BME280;69163;48.778;2.308;2023-07-24T02:10:16;99826.88;;;22.71;39.03
62237;BME280;69163;48.778;2.308;2023-07-24T02:12:41;99827.90;;;22.70;39.00
62237;BME280;69163;48.778;2.308;2023-07-24T02:15:07;99826.31;;;22.44;39.35
62237;BME280;69163;48.778;2.308;2023-07-24T02:17:32;99817.14;;;22.69;39.37
62237;BME280;69163;48.778;2.308;2023-07-24T02:19:57;99811.48;;;22.65;39.63
62237;BME280;69163;48.778;2.308;2023-07-24T02:22:23;99816.99;;;22.46;40.05
62237;BME280;69163;48.778;2.308;2023-07-24T02:24:48;99820.87;;;22.35;39.65
62237;BME280;69163;48.778;2.308;2023-07-24T02:27:13;99818.68;;;22.30;39.86
62237;BME280;69163;48.778;2.308;2023-07-24T02:29:37;99824.58;;;22.46;39.93
62237;BME280;69163;48.778;2.308;2023-07-24T02:32:04;99828.99;;;22.67;40.06
62237;BME280;69163;48.778;2.308;2023-07-24T02:34:29;99820.97;;;22.64;40.18
62237;BME280;69163;48.778;2.308;2023-07-24T02:36:54;99818.66;;;22.59;40.20
62237;BME280;69163;48.778;2.308;2023-07-24T02:39:19;99806.35;;;22.48;40.30
62237;BME280;69163;48.778;2.308;2023-07-24T02:41:45;99810.80;;;22.47;40.29
62237;BME280;69163;48.778;2.308;2023-07-24T02:44:10;99805.07;;;22.23;40.33
62237;BME280;69163;48.778;2.308;2023-07-24T02:46:35;99802.42;;;22.30;40.19
62237;BME280;69163;48.778;2.308;2023-07-24T02:49:00;99798.63;;;22.24;40.22
62237;BME280;69163;48.778;2.308;2023-07-24T02:51:25;99792.69;;;22.22;40.23
62237;BME280;69163;48.778;2.308;2023-07-24T02:53:52;99798.88;;;22.26;40.17
62237;BME280;69163;48.778;2.308;2023-07-24T02:56:15;99808.04;;;22.21;40.26
62237;BME280;69163;48.778;2.308;2023-07-24T02:58:40;99809.09;;;21.99;40.17
62237;BME280;69163;48.778;2.308;2023-07-24T03:01:07;99800.22;;;22.48;40.19
62237;BME280;69163;48.778;2.308;2023-07-24T03:03:31;99791.86;;;22.48;40.11
62237;BME280;69163;48.778;2.308;2023-07-24T03:05:57;99801.57;;;22.26;40.09
62237;BME280;69163;48.778;2.308;2023-07-24T03:08:22;99810.73;;;22.22;40.15
62237;BME280;69163;48.778;2.308;2023-07-24T03:10:48;99819.05;;;22.23;40.09
62237;BME280;69163;48.778;2.308;2023-07-24T03:13:12;99823.45;;;22.22;40.10
62237;BME280;69163;48.778;2.308;2023-07-24T03:15:37;99821.91;;;22.51;39.98
62237;BME280;69163;48.778;2.308;2023-07-24T03:18:02;99820.26;;;22.43;40.03
62237;BME280;69163;48.778;2.308;2023-07-24T03:20:28;99827.97;;;22.43;40.08
62237;BME280;69163;48.778;2.308;2023-07-24T03:22:54;99821.85;;;22.50;39.97
62237;BME280;69163;48.778;2.308;2023-07-24T03:25:19;99816.38;;;22.51;39.93
62237;BME280;69163;48.778;2.308;2023-07-24T03:27:45;99799.96;;;22.32;39.82
62237;BME280;69163;48.778;2.308;2023-07-24T03:30:10;99799.32;;;22.22;39.91
62237;BME280;69163;48.778;2.308;2023-07-24T03:32:36;99800.45;;;22.02;39.83
62237;BME280;69163;48.778;2.308;2023-07-24T03:35:00;99810.74;;;22.05;39.80
62237;BME280;69163;48.778;2.308;2023-07-24T03:37:24;99818.75;;;22.18;39.91
62237;BME280;69163;48.778;2.308;2023-07-24T03:39:50;99795.28;;;21.92;39.91
62237;BME280;69163;48.778;2.308;2023-07-24T03:42:25;99804.07;;;22.11;39.97
62237;BME280;69163;48.778;2.308;2023-07-24T03:44:41;99804.87;;;22.20;39.89
62237;BME280;69163;48.778;2.308;2023-07-24T03:47:06;99766.18;;;22.28;39.66
62237;BME280;69163;48.778;2.308;2023-07-24T03:49:31;99773.54;;;22.19;39.80
62237;BME280;69163;48.778;2.308;2023-07-24T03:51:56;99778.68;;;22.53;39.68
62237;BME280;69163;48.778;2.308;2023-07-24T03:54:22;99778.33;;;22.50;39.66
62237;BME280;69163;48.778;2.308;2023-07-24T03:56:47;99781.90;;;22.25;39.65
62237;BME280;69163;48.778;2.308;2023-07-24T03:59:12;99784.79;;;22.42;39.71
62237;BME280;69163;48.778;2.308;2023-07-24T04:01:37;99780.55;;;22.24;39.65
62237;BME280;69163;48.778;2.308;2023-07-24T04:04:03;99780.53;;;22.33;39.54
62237;BME280;69163;48.778;2.308;2023-07-24T04:06:27;99783.07;;;22.47;39.60
62237;BME280;69163;48.778;2.308;2023-07-24T04:08:52;99787.00;;;22.24;39.62
62237;BME280;69163;48.778;2.308;2023-07-24T04:11:18;99787.05;;;22.51;39.57
62237;BME280;69163;48.778;2.308;2023-07-24T04:13:43;99785.47;;;22.51;39.56
62237;BME280;69163;48.778;2.308;2023-07-24T04:16:08;99787.36;;;22.48;39.55
62237;BME280;69163;48.778;2.308;2023-07-24T04:18:34;99789.59;;;22.31;39.50
62237;BME280;69163;48.778;2.308;2023-07-24T04:20:59;99791.64;;;22.55;39.46
62237;BME280;69163;48.778;2.308;2023-07-24T04:23:23;99791.64;;;22.31;39.46
62237;BME280;69163;48.778;2.308;2023-07-24T04:25:50;99788.63;;;22.52;39.47
62237;BME280;69163;48.778;2.308;2023-07-24T04:28:14;99791.44;;;22.62;39.35
62237;BME280;69163;48.778;2.308;2023-07-24T04:30:39;99791.56;;;22.38;39.35
62237;BME280;69163;48.778;2.308;2023-07-24T04:33:04;99788.45;;;22.37;39.34
62237;BME280;69163;48.778;2.308;2023-07-24T04:35:30;99793.33;;;22.40;39.29
62237;BME280;69163;48.778;2.308;2023-07-24T04:37:55;99799.31;;;22.62;39.30
62237;BME280;69163;48.778;2.308;2023-07-24T04:40:21;99798.25;;;22.60;39.31
62237;BME280;69163;48.778;2.308;2023-07-24T04:42:47;99792.77;;;22.38;39.29
62237;BME280;69163;48.778;2.308;2023-07-24T04:45:12;99786.05;;;22.58;39.33
62237;BME280;69163;48.778;2.308;2023-07-24T04:47:37;99793.02;;;22.60;39.28
62237;BME280;69163;48.778;2.308;2023-07-24T04:50:02;99791.94;;;22.57;39.34
62237;BME280;69163;48.778;2.308;2023-07-24T04:52:27;99788.31;;;22.37;39.29
62237;BME280;69163;48.778;2.308;2023-07-24T04:54:52;99791.38;;;22.32;39.38
62237;BME280;69163;48.778;2.308;2023-07-24T04:57:18;99793.96;;;22.39;39.25
62237;BME280;69163;48.778;2.308;2023-07-24T04:59:43;99793.23;;;22.59;39.25
62237;BME280;69163;48.778;2.308;2023-07-24T05:02:08;99792.51;;;22.57;39.26
62237;BME280;69163;48.778;2.308;2023-07-24T05:04:33;99795.59;;;22.36;39.22
62237;BME280;69163;48.778;2.308;2023-07-24T05:06:58;99791.01;;;22.53;39.33
62237;BME280;69163;48.778;2.308;2023-07-24T05:09:23;99792.71;;;22.59;39.28
62237;BME280;69163;48.778;2.308;2023-07-24T05:11:49;99798.22;;;22.11;39.25
62237;BME280;69163;48.778;2.308;2023-07-24T05:14:14;99801.72;;;22.59;39.42
62237;BME280;69163;48.778;2.308;2023-07-24T05:16:39;99799.84;;;22.60;39.41
62237;BME280;69163;48.778;2.308;2023-07-24T05:19:05;99794.77;;;22.60;39.35
62237;BME280;69163;48.778;2.308;2023-07-24T05:21:31;99798.81;;;22.42;39.26
62237;BME280;69163;48.778;2.308;2023-07-24T05:23:56;99797.87;;;22.49;39.20
62237;BME280;69163;48.778;2.308;2023-07-24T05:26:21;99796.10;;;22.76;39.15
62237;BME280;69163;48.778;2.308;2023-07-24T05:28:47;99781.73;;;22.78;39.10
62237;BME280;69163;48.778;2.308;2023-07-24T05:31:11;99788.07;;;22.69;39.23
62237;BME280;69163;48.778;2.308;2023-07-24T05:33:37;99782.53;;;22.41;39.25
62237;BME280;69163;48.778;2.308;2023-07-24T05:36:03;99783.68;;;22.69;39.17
62237;BME280;69163;48.778;2.308;2023-07-24T05:38:27;99786.63;;;22.51;39.08
62237;BME280;69163;48.778;2.308;2023-07-24T05:40:55;99780.00;;;22.69;39.15
62237;BME280;69163;48.778;2.308;2023-07-24T05:43:17;99786.37;;;22.42;39.17
62237;BME280;69163;48.778;2.308;2023-07-24T05:45:43;99788.19;;;22.48;39.11
62237;BME280;69163;48.778;2.308;2023-07-24T05:48:08;99782.11;;;22.45;39.12
62237;BME280;69163;48.778;2.308;2023-07-24T05:50:33;99791.42;;;22.63;39.21
62237;BME280;69163;48.778;2.308;2023-07-24T05:52:58;99798.74;;;22.73;39.05
62237;BME280;69163;48.778;2.308;2023-07-24T05:55:23;99790.72;;;22.41;39.12
62237;BME280;69163;48.778;2.308;2023-07-24T05:57:49;99788.94;;;22.65;39.12
62237;BME280;69163;48.778;2.308;2023-07-24T06:00:15;99788.52;;;22.68;39.04
62237;BME280;69163;48.778;2.308;2023-07-24T06:02:39;99794.55;;;22.73;38.98
62237;BME280;69163;48.778;2.308;2023-07-24T06:05:05;99796.25;;;22.76;38.94
62237;BME280;69163;48.778;2.308;2023-07-24T06:07:30;99793.98;;;22.80;38.87
62237;BME280;69163;48.778;2.308;2023-07-24T06:09:55;99800.23;;;22.53;38.90
62237;BME280;69163;48.778;2.308;2023-07-24T06:12:20;99799.81;;;22.49;38.93
62237;BME280;69163;48.778;2.308;2023-07-24T06:14:46;99800.94;;;22.71;38.92
62237;BME280;69163;48.778;2.308;2023-07-24T06:17:11;99806.28;;;22.45;38.93
62237;BME280;69163;48.778;2.308;2023-07-24T06:19:35;99805.02;;;22.39;38.96
62237;BME280;69163;48.778;2.308;2023-07-24T06:22:01;99812.62;;;22.37;39.01
62237;BME280;69163;48.778;2.308;2023-07-24T06:24:26;99809.32;;;22.37;38.94
62237;BME280;69163;48.778;2.308;2023-07-24T06:26:51;99808.95;;;22.41;38.96
62237;BME280;69163;48.778;2.308;2023-07-24T06:29:16;99809.41;;;22.43;38.91
62237;BME280;69163;48.778;2.308;2023-07-24T06:31:41;99807.35;;;22.62;38.99
62237;BME280;69163;48.778;2.308;2023-07-24T06:34:07;99805.08;;;22.66;38.88
62237;BME280;69163;48.778;2.308;2023-07-24T06:36:33;99806.21;;;22.43;38.85
62237;BME280;69163;48.778;2.308;2023-07-24T06:38:58;99807.72;;;22.68;38.83
62237;BME280;69163;48.778;2.308;2023-07-24T06:41:23;99807.74;;;22.70;38.77
62237;BME280;69163;48.778;2.308;2023-07-24T06:43:48;99805.99;;;22.59;38.92
62237;BME280;69163;48.778;2.308;2023-07-24T06:46:13;99804.26;;;22.34;38.91
62237;BME280;69163;48.778;2.308;2023-07-24T06:48:39;99805.43;;;22.50;39.03
62237;BME280;69163;48.778;2.308;2023-07-24T06:51:04;99814.50;;;21.96;39.08
62237;BME280;69163;48.778;2.308;2023-07-24T06:53:29;99812.98;;;22.45;39.07
62237;BME280;69163;48.778;2.308;2023-07-24T06:55:54;99814.22;;;22.46;39.03
62237;BME280;69163;48.778;2.308;2023-07-24T06:58:19;99806.29;;;22.46;39.02
62237;BME280;69163;48.778;2.308;2023-07-24T07:00:45;99808.99;;;22.26;38.94
62237;BME280;69163;48.778;2.308;2023-07-24T07:03:10;99810.87;;;22.21;39.02
62237;BME280;69163;48.778;2.308;2023-07-24T07:05:34;99813.57;;;22.19;39.04
62237;BME280;69163;48.778;2.308;2023-07-24T07:08:00;99811.05;;;22.39;39.03
62237;BME280;69163;48.778;2.308;2023-07-24T07:10:25;99813.98;;;22.39;39.04
62237;BME280;69163;48.778;2.308;2023-07-24T07:12:50;99814.80;;;22.17;39.01
62237;BME280;69163;48.778;2.308;2023-07-24T07:15:15;99817.10;;;22.40;39.01
62237;BME280;69163;48.778;2.308;2023-07-24T07:17:41;99819.78;;;22.39;39.01
62237;BME280;69163;48.778;2.308;2023-07-24T07:20:07;99818.17;;;22.35;39.01
62237;BME280;69163;48.778;2.308;2023-07-24T07:22:32;99815.05;;;22.33;39.05
62237;BME280;69163;48.778;2.308;2023-07-24T07:24:57;99811.08;;;22.32;39.03
62237;BME280;69163;48.778;2.308;2023-07-24T07:27:22;99813.55;;;22.03;39.11
62237;BME280;69163;48.778;2.308;2023-07-24T07:29:49;99815.50;;;22.25;39.11
62237;BME280;69163;48.778;2.308;2023-07-24T07:32:13;99812.38;;;22.22;39.08
62237;BME280;69163;48.778;2.308;2023-07-24T07:34:39;99809.09;;;22.47;38.75
62237;BME280;69163;48.778;2.308;2023-07-24T07:37:04;99809.43;;;22.23;38.56
62237;BME280;69163;48.778;2.308;2023-07-24T07:39:28;99814.21;;;22.24;38.39
62237;BME280;69163;48.778;2.308;2023-07-24T07:41:53;99813.54;;;22.41;38.32
62237;BME280;69163;48.778;2.308;2023-07-24T07:44:19;99817.89;;;22.66;38.37
62237;BME280;69163;48.778;2.308;2023-07-24T07:46:45;99817.82;;;22.44;38.45
62237;BME280;69163;48.778;2.308;2023-07-24T07:49:09;99817.58;;;22.56;38.11
62237;BME280;69163;48.778;2.308;2023-07-24T07:51:35;99822.31;;;22.55;38.13
62237;BME280;69163;48.778;2.308;2023-07-24T07:54:00;99826.05;;;22.39;38.22
62237;BME280;69163;48.778;2.308;2023-07-24T07:56:25;99829.48;;;22.35;38.31
62237;BME280;69163;48.778;2.308;2023-07-24T07:58:51;99825.88;;;22.33;38.17
62237;BME280;69163;48.778;2.308;2023-07-24T08:01:16;99828.22;;;22.32;38.10
62237;BME280;69163;48.778;2.308;2023-07-24T08:03:41;99827.99;;;22.30;37.92
62237;BME280;69163;48.778;2.308;2023-07-24T08:06:06;99819.56;;;22.31;37.94
62237;BME280;69163;48.778;2.308;2023-07-24T08:08:31;99822.81;;;22.24;38.43
62237;BME280;69163;48.778;2.308;2023-07-24T08:10:57;99824.57;;;22.38;38.41
62237;BME280;69163;48.778;2.308;2023-07-24T08:13:22;99822.19;;;22.22;38.62
62237;BME280;69163;48.778;2.308;2023-07-24T08:15:48;99827.36;;;21.89;38.76
62237;BME280;69163;48.778;2.308;2023-07-24T08:18:12;99827.23;;;21.55;38.88
62237;BME280;69163;48.778;2.308;2023-07-24T08:20:37;99826.54;;;22.28;38.84
62237;BME280;69163;48.778;2.308;2023-07-24T08:23:03;99823.05;;;22.00;38.87
62237;BME280;69163;48.778;2.308;2023-07-24T08:25:28;99828.49;;;21.95;38.91
62237;BME280;69163;48.778;2.308;2023-07-24T08:27:53;99815.99;;;22.17;35.90
62237;BME280;69163;48.778;2.308;2023-07-24T08:30:19;99822.95;;;21.80;35.09
62237;BME280;69163;48.778;2.308;2023-07-24T08:32:44;99821.96;;;21.68;35.92
62237;BME280;69163;48.778;2.308;2023-07-24T08:35:09;99817.79;;;21.47;35.71
62237;BME280;69163;48.778;2.308;2023-07-24T08:37:34;99822.73;;;21.28;36.04
62237;BME280;69163;48.778;2.308;2023-07-24T08:39:59;99823.35;;;21.25;36.48
62237;BME280;69163;48.778;2.308;2023-07-24T08:42:25;99826.37;;;20.94;36.64
62237;BME280;69163;48.778;2.308;2023-07-24T08:44:51;99826.62;;;20.24;36.97
62237;BME280;69163;48.778;2.308;2023-07-24T08:47:15;99831.30;;;20.23;37.18
62237;BME280;69163;48.778;2.308;2023-07-24T08:49:41;99832.70;;;19.97;37.52
62237;BME280;69163;48.778;2.308;2023-07-24T08:52:06;99827.49;;;19.75;37.09
62237;BME280;69163;48.778;2.308;2023-07-24T08:54:31;99824.16;;;20.05;36.99
62237;BME280;69163;48.778;2.308;2023-07-24T08:56:55;99835.45;;;19.75;37.15
62237;BME280;69163;48.778;2.308;2023-07-24T08:59:21;99836.21;;;20.42;37.05
62237;BME280;69163;48.778;2.308;2023-07-24T09:01:47;99830.49;;;20.48;36.78
62237;BME280;69163;48.778;2.308;2023-07-24T09:04:11;99830.28;;;21.09;36.66
62237;BME280;69163;48.778;2.308;2023-07-24T09:06:37;99835.95;;;21.28;36.57
62237;BME280;69163;48.778;2.308;2023-07-24T09:09:02;99831.49;;;20.92;36.47
62237;BME280;69163;48.778;2.308;2023-07-24T09:11:27;99834.05;;;21.06;36.41
62237;BME280;69163;48.778;2.308;2023-07-24T09:13:52;99837.96;;;21.18;36.35
62237;BME280;69163;48.778;2.308;2023-07-24T09:16:23;99848.50;;;21.03;36.36
62237;BME280;69163;48.778;2.308;2023-07-24T09:18:43;99841.32;;;21.36;36.40
62237;BME280;69163;48.778;2.308;2023-07-24T09:21:08;99840.44;;;21.38;36.46
62237;BME280;69163;48.778;2.308;2023-07-24T09:23:33;99830.95;;;20.95;36.60
62237;BME280;69163;48.778;2.308;2023-07-24T09:25:59;99834.97;;;21.22;36.63
62237;BME280;69163;48.778;2.308;2023-07-24T09:28:24;99840.90;;;21.01;36.71
62237;BME280;69163;48.778;2.308;2023-07-24T09:30:53;99842.82;;;21.28;36.72
62237;BME280;69163;48.778;2.308;2023-07-24T09:33:14;99841.75;;;21.32;36.71
62237;BME280;69163;48.778;2.308;2023-07-24T09:35:39;99840.18;;;21.39;36.71
62237;BME280;69163;48.778;2.308;2023-07-24T09:38:05;99840.76;;;21.19;36.71
62237;BME280;69163;48.778;2.308;2023-07-24T09:40:38;99842.99;;;21.67;36.74
62237;BME280;69163;48.778;2.308;2023-07-24T09:42:55;99840.77;;;21.48;36.76
62237;BME280;69163;48.778;2.308;2023-07-24T09:45:20;99838.87;;;21.65;36.89
62237;BME280;69163;48.778;2.308;2023-07-24T09:47:46;99835.48;;;21.63;36.99
62237;BME280;69163;48.778;2.308;2023-07-24T09:50:10;99834.50;;;21.16;36.99
62237;BME280;69163;48.778;2.308;2023-07-24T09:52:37;99838.98;;;21.63;37.08
62237;BME280;69163;48.778;2.308;2023-07-24T09:55:06;99837.32;;;21.20;37.04
62237;BME280;69163;48.778;2.308;2023-07-24T09:57:26;99836.26;;;21.47;37.07
62237;BME280;69163;48.778;2.308;2023-07-24T09:59:52;99837.46;;;21.75;37.06
62237;BME280;69163;48.778;2.308;2023-07-24T10:02:18;99838.55;;;21.77;37.07
62237;BME280;69163;48.778;2.308;2023-07-24T10:04:42;99847.35;;;21.70;37.14
62237;BME280;69163;48.778;2.308;2023-07-24T10:07:07;99843.93;;;21.68;37.19
62237;BME280;69163;48.778;2.308;2023-07-24T10:09:33;99846.16;;;21.48;37.17
62237;BME280;69163;48.778;2.308;2023-07-24T10:11:58;99847.29;;;21.50;37.13
62237;BME280;69163;48.778;2.308;2023-07-24T10:14:24;99848.37;;;21.50;37.14
62237;BME280;69163;48.778;2.308;2023-07-24T10:16:49;99845.66;;;21.25;37.17
62237;BME280;69163;48.778;2.308;2023-07-24T10:19:15;99854.99;;;21.54;37.15
62237;BME280;69163;48.778;2.308;2023-07-24T10:21:46;99851.95;;;21.31;37.10
62237;BME280;69163;48.778;2.308;2023-07-24T10:24:05;99847.68;;;21.32;37.15
62237;BME280;69163;48.778;2.308;2023-07-24T10:26:30;99852.89;;;21.38;37.08
62237;BME280;69163;48.778;2.308;2023-07-24T10:28:56;99851.72;;;21.82;37.10
62237;BME280;69163;48.778;2.308;2023-07-24T10:31:22;99842.78;;;21.79;37.11
62237;BME280;69163;48.778;2.308;2023-07-24T10:33:46;99843.17;;;21.55;37.19
62237;BME280;69163;48.778;2.308;2023-07-24T10:36:11;99848.54;;;21.30;37.20
62237;BME280;69163;48.778;2.308;2023-07-24T10:38:37;99843.83;;;21.30;37.19
62237;BME280;69163;48.778;2.308;2023-07-24T10:41:02;99847.89;;;21.33;37.14
62237;BME280;69163;48.778;2.308;2023-07-24T10:43:26;99845.83;;;21.81;37.17
62237;BME280;69163;48.778;2.308;2023-07-24T10:45:53;99846.66;;;21.58;37.18
62237;BME280;69163;48.778;2.308;2023-07-24T10:48:17;99839.93;;;21.55;37.20
62237;BME280;69163;48.778;2.308;2023-07-24T10:50:43;99835.10;;;21.34;37.16
62237;BME280;69163;48.778;2.308;2023-07-24T10:53:08;99838.58;;;21.58;37.16
62237;BME280;69163;48.778;2.308;2023-07-24T10:55:33;99838.75;;;21.55;37.22
62237;BME280;69163;48.778;2.308;2023-07-24T10:57:58;99845.56;;;21.56;37.23
62237;BME280;69163;48.778;2.308;2023-07-24T11:00:23;99852.04;;;21.82;37.15
62237;BME280;69163;48.778;2.308;2023-07-24T11:02:49;99852.35;;;21.88;37.11
62237;BME280;69163;48.778;2.308;2023-07-24T11:05:14;99850.16;;;21.84;37.18
62237;BME280;69163;48.778;2.308;2023-07-24T11:07:39;99856.47;;;21.33;37.25
62237;BME280;69163;48.778;2.308;2023-07-24T11:12:29;99849.41;;;21.29;37.29
62237;BME280;69163;48.778;2.308;2023-07-24T11:14:54;99853.58;;;21.28;37.32
62237;BME280;69163;48.778;2.308;2023-07-24T11:17:20;99851.18;;;21.28;37.31
62237;BME280;69163;48.778;2.308;2023-07-24T11:19:45;99851.14;;;21.56;37.24
62237;BME280;69163;48.778;2.308;2023-07-24T11:22:10;99846.46;;;21.32;37.25
62237;BME280;69163;48.778;2.308;2023-07-24T11:24:42;99853.31;;;21.34;37.25
62237;BME280;69163;48.778;2.308;2023-07-24T11:27:00;99854.88;;;21.40;37.20
62237;BME280;69163;48.778;2.308;2023-07-24T11:29:26;99855.63;;;21.35;37.25
62237;BME280;69163;48.778;2.308;2023-07-24T11:31:54;99849.12;;;21.34;37.27
62237;BME280;69163;48.778;2.308;2023-07-24T11:34:16;99850.87;;;21.55;37.27
62237;BME280;69163;48.778;2.308;2023-07-24T11:36:42;99849.32;;;21.30;37.31
62237;BME280;69163;48.778;2.308;2023-07-24T11:39:06;99844.84;;;21.30;37.32
62237;BME280;69163;48.778;2.308;2023-07-24T11:41:32;99845.96;;;21.81;37.26
62237;BME280;69163;48.778;2.308;2023-07-24T11:43:57;99845.91;;;21.37;37.23
62237;BME280;69163;48.778;2.308;2023-07-24T11:46:23;99849.99;;;21.37;37.30
62237;BME280;69163;48.778;2.308;2023-07-24T11:48:48;99846.79;;;21.39;37.23
62237;BME280;69163;48.778;2.308;2023-07-24T11:51:13;99848.04;;;21.34;37.27
62237;BME280;69163;48.778;2.308;2023-07-24T11:53:37;99849.25;;;21.84;37.23
62237;BME280;69163;48.778;2.308;2023-07-24T11:56:12;99847.93;;;21.79;37.31
62237;BME280;69163;48.778;2.308;2023-07-24T11:58:29;99847.91;;;21.28;37.18
62237;BME280;69163;48.778;2.308;2023-07-24T12:00:54;99847.85;;;21.52;37.33
62237;BME280;69163;48.778;2.308;2023-07-24T12:03:20;99850.02;;;21.53;37.33
62237;BME280;69163;48.778;2.308;2023-07-24T12:05:45;99851.17;;;21.80;37.30
62237;BME280;69163;48.778;2.308;2023-07-24T12:08:10;99851.28;;;21.83;37.26
62237;BME280;69163;48.778;2.308;2023-07-24T12:10:37;99858.85;;;21.37;37.22
62237;BME280;69163;48.778;2.308;2023-07-24T12:13:00;99861.13;;;21.64;37.16
62237;BME280;69163;48.778;2.308;2023-07-24T12:15:25;99850.80;;;21.60;37.15
62237;BME280;69163;48.778;2.308;2023-07-24T12:17:50;99856.84;;;21.36;37.16
62237;BME280;69163;48.778;2.308;2023-07-24T12:20:16;99854.72;;;21.39;37.09
62237;BME280;69163;48.778;2.308;2023-07-24T12:22:41;99850.69;;;21.63;37.11
62237;BME280;69163;48.778;2.308;2023-07-24T12:25:07;99856.77;;;21.83;37.16
62237;BME280;69163;48.778;2.308;2023-07-24T12:27:32;99851.98;;;21.64;37.11
62237;BME280;69163;48.778;2.308;2023-07-24T12:29:57;99848.90;;;21.37;37.14
62237;BME280;69163;48.778;2.308;2023-07-24T12:32:22;99848.88;;;21.87;37.11
62237;BME280;69163;48.778;2.308;2023-07-24T12:34:48;99848.52;;;21.81;37.11
62237;BME280;69163;48.778;2.308;2023-07-24T12:37:13;99850.21;;;21.56;37.14
62237;BME280;69163;48.778;2.308;2023-07-24T12:39:37;99848.34;;;21.37;37.08
62237;BME280;69163;48.778;2.308;2023-07-24T12:42:04;99846.72;;;21.59;37.12
62237;BME280;69163;48.778;2.308;2023-07-24T12:44:28;99850.23;;;21.55;37.19
62237;BME280;69163;48.778;2.308;2023-07-24T12:46:53;99850.18;;;21.67;37.07
62237;BME280;69163;48.778;2.308;2023-07-24T12:49:18;99846.59;;;21.13;37.14
62237;BME280;69163;48.778;2.308;2023-07-24T12:51:44;99847.58;;;21.34;37.18